Ammon, Idaho
Current Conditions -  °F | °C
As of 1:53 PM on Saturday 20 Dec 2014 (Local Time) from KIDA Reporting Station
Overcast Overcast  
Wind Chill: 28°   Ceiling: 600
Heat Index: 36°   Visibility: 10mi
Dew Point: 34°   Wind: 12mph
Humidity: 93%   Direction: 220°SW
Pressure: 29.99"   Gusts: NA
Location:  43.4284°N, 111.925°W
Report Text: KIDA 202053Z 22010KT 10SM BKN006 BKN012 OVC029 02/01 A2999 RMK AO2 RAB1956E27 SLP170 P0000 60001 T00220011 56020
Loading
Personal Weather Stations






























Interactive Weather Map New forecast layout! Learn more

10-Day Weather Forecast

Advertisements
Track Severe Weather on mobile